sensor_id;sensor_type;location;lat;lon;timestamp;pressure;altitude;pressure_sealevel;temperature;humidity
7335;BME280;3708;42.632;23.378;2022-12-01T00:00:52;94506.09;;;7.75;62.06
7335;BME280;3708;42.632;23.378;2022-12-01T00:03:19;94505.72;;;7.68;62.80
7335;BME280;3708;42.632;23.378;2022-12-01T00:05:46;94506.16;;;7.84;62.21
7335;BME280;3708;42.632;23.378;2022-12-01T00:08:13;94505.88;;;7.36;63.58
7335;BME280;3708;42.632;23.378;2022-12-01T00:10:42;94507.50;;;7.81;62.63
7335;BME280;3708;42.632;23.378;2022-12-01T00:13:08;94512.28;;;8.01;62.24
7335;BME280;3708;42.632;23.378;2022-12-01T00:15:36;94508.75;;;7.84;62.32
7335;BME280;3708;42.632;23.378;2022-12-01T00:18:03;94499.97;;;7.93;62.39
7335;BME280;3708;42.632;23.378;2022-12-01T00:20:31;94503.50;;;7.97;62.06
7335;BME280;3708;42.632;23.378;2022-12-01T00:23:00;94506.19;;;7.70;62.05
7335;BME280;3708;42.632;23.378;2022-12-01T00:25:27;94497.34;;;7.93;61.87
7335;BME280;3708;42.632;23.378;2022-12-01T00:27:57;94498.84;;;7.72;62.04
7335;BME280;3708;42.632;23.378;2022-12-01T00:30:24;94502.19;;;7.86;62.00
7335;BME280;3708;42.632;23.378;2022-12-01T00:32:51;94495.03;;;7.92;62.00
7335;BME280;3708;42.632;23.378;2022-12-01T00:35:18;94497.88;;;8.04;61.99
7335;BME280;3708;42.632;23.378;2022-12-01T00:37:45;94502.16;;;8.00;61.47
7335;BME280;3708;42.632;23.378;2022-12-01T00:40:12;94499.81;;;7.98;61.60
7335;BME280;3708;42.632;23.378;2022-12-01T00:42:39;94509.28;;;7.72;62.38
7335;BME280;3708;42.632;23.378;2022-12-01T00:45:09;94501.81;;;7.79;61.85
7335;BME280;3708;42.632;23.378;2022-12-01T00:47:36;94501.34;;;7.77;61.90
7335;BME280;3708;42.632;23.378;2022-12-01T00:50:03;94496.75;;;7.60;62.47
7335;BME280;3708;42.632;23.378;2022-12-01T00:52:30;94486.75;;;7.40;63.06
7335;BME280;3708;42.632;23.378;2022-12-01T00:54:57;94491.78;;;7.72;62.15
7335;BME280;3708;42.632;23.378;2022-12-01T00:57:25;94498.16;;;7.80;62.13
7335;BME280;3708;42.632;23.378;2022-12-01T00:59:52;94484.38;;;7.66;61.98
7335;BME280;3708;42.632;23.378;2022-12-01T01:02:22;94488.75;;;7.57;62.79
7335;BME280;3708;42.632;23.378;2022-12-01T01:04:51;94482.16;;;7.73;61.83
7335;BME280;3708;42.632;23.378;2022-12-01T01:07:19;94484.28;;;7.71;62.87
7335;BME280;3708;42.632;23.378;2022-12-01T01:09:47;94487.22;;;7.56;63.01
7335;BME280;3708;42.632;23.378;2022-12-01T01:12:14;94490.03;;;7.46;63.39
7335;BME280;3708;42.632;23.378;2022-12-01T01:14:41;94494.53;;;7.67;62.87
7335;BME280;3708;42.632;23.378;2022-12-01T01:17:09;94485.88;;;7.45;63.26
7335;BME280;3708;42.632;23.378;2022-12-01T01:19:38;94476.75;;;7.69;62.48
7335;BME280;3708;42.632;23.378;2022-12-01T01:22:06;94465.72;;;7.50;63.32
7335;BME280;3708;42.632;23.378;2022-12-01T01:25:10;94480.81;;;7.62;62.77
7335;BME280;3708;42.632;23.378;2022-12-01T01:27:37;94468.25;;;7.64;63.26
7335;BME280;3708;42.632;23.378;2022-12-01T01:30:05;94472.09;;;7.80;62.68
7335;BME280;3708;42.632;23.378;2022-12-01T01:32:32;94480.72;;;7.67;62.71
7335;BME280;3708;42.632;23.378;2022-12-01T01:35:00;94471.94;;;7.63;63.35
7335;BME280;3708;42.632;23.378;2022-12-01T01:37:27;94473.09;;;7.57;63.21
7335;BME280;3708;42.632;23.378;2022-12-01T01:39:54;94464.59;;;7.65;62.69
7335;BME280;3708;42.632;23.378;2022-12-01T01:42:21;94470.16;;;7.72;62.90
7335;BME280;3708;42.632;23.378;2022-12-01T01:44:50;94457.13;;;7.50;63.59
7335;BME280;3708;42.632;23.378;2022-12-01T01:47:21;94462.84;;;7.74;62.77
7335;BME280;3708;42.632;23.378;2022-12-01T01:49:51;94456.72;;;7.79;62.88
7335;BME280;3708;42.632;23.378;2022-12-01T01:52:21;94467.81;;;7.84;62.61
7335;BME280;3708;42.632;23.378;2022-12-01T01:54:51;94452.75;;;7.81;62.17
7335;BME280;3708;42.632;23.378;2022-12-01T01:57:24;94456.78;;;7.87;62.21
7335;BME280;3708;42.632;23.378;2022-12-01T01:59:54;94452.75;;;8.03;62.27
7335;BME280;3708;42.632;23.378;2022-12-01T02:02:22;94457.16;;;7.94;62.15
7335;BME280;3708;42.632;23.378;2022-12-01T02:04:55;94448.28;;;7.95;62.09
7335;BME280;3708;42.632;23.378;2022-12-01T02:07:24;94446.47;;;7.82;62.88
7335;BME280;3708;42.632;23.378;2022-12-01T02:09:51;94450.44;;;7.80;62.31
7335;BME280;3708;42.632;23.378;2022-12-01T02:12:29;94444.25;;;7.89;62.22
7335;BME280;3708;42.632;23.378;2022-12-01T02:15:10;94439.47;;;7.69;62.66
7335;BME280;3708;42.632;23.378;2022-12-01T02:17:46;94440.44;;;7.73;63.23
7335;BME280;3708;42.632;23.378;2022-12-01T02:20:55;94446.00;;;7.80;62.75
7335;BME280;3708;42.632;23.378;2022-12-01T02:26:48;94435.44;;;7.85;62.07
7335;BME280;3708;42.632;23.378;2022-12-01T02:29:38;94438.72;;;7.91;62.19
7335;BME280;3708;42.632;23.378;2022-12-01T02:32:14;94432.97;;;7.80;62.76
7335;BME280;3708;42.632;23.378;2022-12-01T02:34:51;94439.78;;;7.90;62.19
7335;BME280;3708;42.632;23.378;2022-12-01T02:37:26;94441.69;;;7.76;62.98
7335;BME280;3708;42.632;23.378;2022-12-01T02:40:02;94432.78;;;7.77;63.38
7335;BME280;3708;42.632;23.378;2022-12-01T02:42:37;94434.41;;;7.86;62.86
7335;BME280;3708;42.632;23.378;2022-12-01T02:45:21;94436.16;;;7.77;63.03
7335;BME280;3708;42.632;23.378;2022-12-01T02:47:55;94436.00;;;7.74;63.05
7335;BME280;3708;42.632;23.378;2022-12-01T02:50:24;94436.94;;;7.78;62.94
7335;BME280;3708;42.632;23.378;2022-12-01T02:52:52;94433.66;;;7.72;62.85
7335;BME280;3708;42.632;23.378;2022-12-01T02:55:20;94434.03;;;7.79;62.73
7335;BME280;3708;42.632;23.378;2022-12-01T02:57:47;94430.84;;;7.82;63.00
7335;BME280;3708;42.632;23.378;2022-12-01T03:00:15;94429.13;;;7.78;63.43
7335;BME280;3708;42.632;23.378;2022-12-01T03:02:51;94428.50;;;7.58;63.55
7335;BME280;3708;42.632;23.378;2022-12-01T03:05:28;94434.75;;;7.71;63.02
7335;BME280;3708;42.632;23.378;2022-12-01T03:08:01;94431.78;;;7.86;62.88
7335;BME280;3708;42.632;23.378;2022-12-01T03:10:41;94433.25;;;7.79;63.04
7335;BME280;3708;42.632;23.378;2022-12-01T03:13:18;94426.69;;;7.81;62.73
7335;BME280;3708;42.632;23.378;2022-12-01T03:15:54;94431.00;;;7.86;62.66
7335;BME280;3708;42.632;23.378;2022-12-01T03:18:32;94430.00;;;7.73;63.07
7335;BME280;3708;42.632;23.378;2022-12-01T03:21:07;94428.81;;;7.79;62.93
7335;BME280;3708;42.632;23.378;2022-12-01T03:23:37;94435.38;;;7.77;62.88
7335;BME280;3708;42.632;23.378;2022-12-01T03:26:07;94435.44;;;7.63;63.18
7335;BME280;3708;42.632;23.378;2022-12-01T03:28:38;94437.41;;;7.80;62.93
7335;BME280;3708;42.632;23.378;2022-12-01T03:31:12;94436.78;;;7.74;61.94
7335;BME280;3708;42.632;23.378;2022-12-01T03:33:46;94433.31;;;7.65;62.03
7335;BME280;3708;42.632;23.378;2022-12-01T03:36:19;94432.91;;;7.72;62.85
7335;BME280;3708;42.632;23.378;2022-12-01T03:38:51;94425.72;;;7.55;62.96
7335;BME280;3708;42.632;23.378;2022-12-01T03:41:25;94434.84;;;7.44;63.29
7335;BME280;3708;42.632;23.378;2022-12-01T03:43:58;94427.91;;;7.61;62.86
7335;BME280;3708;42.632;23.378;2022-12-01T03:46:33;94428.88;;;7.65;62.68
7335;BME280;3708;42.632;23.378;2022-12-01T03:49:02;94426.34;;;7.74;62.35
7335;BME280;3708;42.632;23.378;2022-12-01T03:51:36;94431.41;;;7.79;62.31
7335;BME280;3708;42.632;23.378;2022-12-01T03:54:09;94430.31;;;7.72;61.94
7335;BME280;3708;42.632;23.378;2022-12-01T03:56:43;94418.22;;;7.76;62.05
7335;BME280;3708;42.632;23.378;2022-12-01T03:59:12;94428.81;;;7.79;62.48
7335;BME280;3708;42.632;23.378;2022-12-01T04:01:42;94420.56;;;7.63;62.42
7335;BME280;3708;42.632;23.378;2022-12-01T04:04:11;94433.66;;;7.72;62.43
7335;BME280;3708;42.632;23.378;2022-12-01T04:06:42;94422.56;;;7.44;63.46
7335;BME280;3708;42.632;23.378;2022-12-01T04:09:09;94428.78;;;7.35;63.37
7335;BME280;3708;42.632;23.378;2022-12-01T04:11:36;94420.91;;;7.48;63.20
7335;BME280;3708;42.632;23.378;2022-12-01T04:14:21;94423.34;;;7.45;63.71
7335;BME280;3708;42.632;23.378;2022-12-01T04:16:48;94425.84;;;7.50;63.30
7335;BME280;3708;42.632;23.378;2022-12-01T04:19:15;94427.03;;;7.44;63.87
7335;BME280;3708;42.632;23.378;2022-12-01T04:21:43;94427.84;;;7.53;63.71
7335;BME280;3708;42.632;23.378;2022-12-01T04:24:11;94425.22;;;7.53;63.01
7335;BME280;3708;42.632;23.378;2022-12-01T04:26:38;94427.03;;;7.44;63.24
7335;BME280;3708;42.632;23.378;2022-12-01T04:29:06;94430.91;;;7.33;63.89
7335;BME280;3708;42.632;23.378;2022-12-01T04:31:33;94437.25;;;7.27;64.45
7335;BME280;3708;42.632;23.378;2022-12-01T04:34:00;94427.44;;;7.24;64.60
7335;BME280;3708;42.632;23.378;2022-12-01T04:36:29;94437.53;;;7.39;64.34
7335;BME280;3708;42.632;23.378;2022-12-01T04:38:57;94435.25;;;7.37;64.20
7335;BME280;3708;42.632;23.378;2022-12-01T04:41:24;94427.34;;;7.29;64.48
7335;BME280;3708;42.632;23.378;2022-12-01T04:43:52;94432.00;;;7.05;65.05
7335;BME280;3708;42.632;23.378;2022-12-01T04:46:19;94433.78;;;7.31;64.79
7335;BME280;3708;42.632;23.378;2022-12-01T04:48:46;94431.41;;;7.08;65.19
7335;BME280;3708;42.632;23.378;2022-12-01T04:51:13;94431.84;;;7.37;64.77
7335;BME280;3708;42.632;23.378;2022-12-01T04:53:40;94430.34;;;7.22;65.11
7335;BME280;3708;42.632;23.378;2022-12-01T04:56:09;94432.44;;;7.34;64.28
7335;BME280;3708;42.632;23.378;2022-12-01T04:58:36;94438.09;;;7.14;64.80
7335;BME280;3708;42.632;23.378;2022-12-01T05:01:05;94435.75;;;7.12;64.99
7335;BME280;3708;42.632;23.378;2022-12-01T05:03:35;94434.00;;;7.21;64.27
7335;BME280;3708;42.632;23.378;2022-12-01T05:06:03;94428.72;;;7.13;64.83
7335;BME280;3708;42.632;23.378;2022-12-01T05:08:30;94429.59;;;7.08;65.16
7335;BME280;3708;42.632;23.378;2022-12-01T05:10:58;94433.03;;;7.17;64.40
7335;BME280;3708;42.632;23.378;2022-12-01T05:13:27;94437.09;;;7.10;65.03
7335;BME280;3708;42.632;23.378;2022-12-01T05:16:03;94430.19;;;6.91;65.89
7335;BME280;3708;42.632;23.378;2022-12-01T05:18:30;94439.75;;;6.96;66.06
7335;BME280;3708;42.632;23.378;2022-12-01T05:20:58;94438.66;;;6.97;65.50
7335;BME280;3708;42.632;23.378;2022-12-01T05:23:24;94440.59;;;6.91;65.57
7335;BME280;3708;42.632;23.378;2022-12-01T05:25:53;94446.00;;;6.95;65.87
7335;BME280;3708;42.632;23.378;2022-12-01T05:28:25;94441.56;;;6.82;65.86
7335;BME280;3708;42.632;23.378;2022-12-01T05:30:56;94434.03;;;6.80;66.32
7335;BME280;3708;42.632;23.378;2022-12-01T05:33:25;94441.66;;;6.90;66.16
7335;BME280;3708;42.632;23.378;2022-12-01T05:35:53;94437.41;;;6.94;65.35
7335;BME280;3708;42.632;23.378;2022-12-01T05:38:22;94437.44;;;6.81;65.13
7335;BME280;3708;42.632;23.378;2022-12-01T05:40:49;94436.91;;;6.92;65.43
7335;BME280;3708;42.632;23.378;2022-12-01T05:43:17;94435.78;;;6.99;65.46
7335;BME280;3708;42.632;23.378;2022-12-01T05:45:45;94434.44;;;6.74;65.46
7335;BME280;3708;42.632;23.378;2022-12-01T05:48:13;94436.25;;;6.87;65.36
7335;BME280;3708;42.632;23.378;2022-12-01T05:50:41;94446.88;;;6.77;65.44
7335;BME280;3708;42.632;23.378;2022-12-01T05:53:10;94444.47;;;6.80;66.24
7335;BME280;3708;42.632;23.378;2022-12-01T05:55:37;94448.97;;;6.88;66.09
7335;BME280;3708;42.632;23.378;2022-12-01T05:58:04;94451.41;;;6.85;65.51
7335;BME280;3708;42.632;23.378;2022-12-01T06:00:33;94455.16;;;6.92;64.88
7335;BME280;3708;42.632;23.378;2022-12-01T06:03:00;94457.38;;;6.85;65.39
7335;BME280;3708;42.632;23.378;2022-12-01T06:05:31;94448.69;;;6.76;65.72
7335;BME280;3708;42.632;23.378;2022-12-01T06:07:59;94456.22;;;6.91;64.87
7335;BME280;3708;42.632;23.378;2022-12-01T06:10:27;94453.03;;;6.94;64.43
7335;BME280;3708;42.632;23.378;2022-12-01T06:12:54;94452.94;;;6.86;64.78
7335;BME280;3708;42.632;23.378;2022-12-01T06:15:21;94458.91;;;7.00;63.89
7335;BME280;3708;42.632;23.378;2022-12-01T06:17:48;94456.31;;;6.86;64.50
7335;BME280;3708;42.632;23.378;2022-12-01T06:20:15;94456.97;;;6.65;64.70
7335;BME280;3708;42.632;23.378;2022-12-01T06:22:47;94461.81;;;6.71;64.97
7335;BME280;3708;42.632;23.378;2022-12-01T06:25:14;94462.59;;;6.85;64.42
7335;BME280;3708;42.632;23.378;2022-12-01T06:27:42;94465.28;;;6.67;63.96
7335;BME280;3708;42.632;23.378;2022-12-01T06:30:09;94454.47;;;6.73;64.57
7335;BME280;3708;42.632;23.378;2022-12-01T06:32:37;94457.75;;;6.65;64.59
7335;BME280;3708;42.632;23.378;2022-12-01T06:35:04;94457.84;;;6.74;64.52
7335;BME280;3708;42.632;23.378;2022-12-01T06:37:31;94458.63;;;6.74;64.22
7335;BME280;3708;42.632;23.378;2022-12-01T06:40:00;94450.81;;;6.74;64.30
7335;BME280;3708;42.632;23.378;2022-12-01T06:42:28;94449.66;;;6.80;64.11
7335;BME280;3708;42.632;23.378;2022-12-01T06:44:56;94442.13;;;6.92;64.19
7335;BME280;3708;42.632;23.378;2022-12-01T06:47:24;94450.03;;;7.15;64.01
7335;BME280;3708;42.632;23.378;2022-12-01T06:49:52;94453.72;;;7.14;63.44
7335;BME280;3708;42.632;23.378;2022-12-01T06:52:19;94450.53;;;6.76;63.94
7335;BME280;3708;42.632;23.378;2022-12-01T06:54:46;94457.19;;;6.96;63.45
7335;BME280;3708;42.632;23.378;2022-12-01T06:57:16;94458.53;;;7.07;63.26
7335;BME280;3708;42.632;23.378;2022-12-01T06:59:44;94450.41;;;7.22;62.83
7335;BME280;3708;42.632;23.378;2022-12-01T07:02:10;94450.03;;;7.15;62.58
7335;BME280;3708;42.632;23.378;2022-12-01T07:04:37;94445.28;;;7.17;62.58
7335;BME280;3708;42.632;23.378;2022-12-01T07:07:11;94452.53;;;7.20;63.18
7335;BME280;3708;42.632;23.378;2022-12-01T07:09:38;94451.47;;;7.21;62.09
7335;BME280;3708;42.632;23.378;2022-12-01T07:12:05;94456.78;;;7.16;62.33
7335;BME280;3708;42.632;23.378;2022-12-01T07:14:36;94462.97;;;7.20;62.40
7335;BME280;3708;42.632;23.378;2022-12-01T07:17:06;94448.97;;;7.02;62.40
7335;BME280;3708;42.632;23.378;2022-12-01T07:19:34;94467.78;;;7.13;62.72
7335;BME280;3708;42.632;23.378;2022-12-01T07:22:01;94478.88;;;7.05;62.89
7335;BME280;3708;42.632;23.378;2022-12-01T07:24:28;94470.69;;;7.11;62.61
7335;BME280;3708;42.632;23.378;2022-12-01T07:26:56;94461.13;;;7.07;62.34
7335;BME280;3708;42.632;23.378;2022-12-01T07:29:23;94463.91;;;7.10;62.84
7335;BME280;3708;42.632;23.378;2022-12-01T07:31:51;94464.13;;;7.14;62.58
7335;BME280;3708;42.632;23.378;2022-12-01T07:34:18;94464.31;;;6.76;62.97
7335;BME280;3708;42.632;23.378;2022-12-01T07:36:45;94467.00;;;6.71;63.66
7335;BME280;3708;42.632;23.378;2022-12-01T07:39:13;94471.47;;;6.98;63.00
7335;BME280;3708;42.632;23.378;2022-12-01T07:41:40;94462.78;;;7.03;62.97
7335;BME280;3708;42.632;23.378;2022-12-01T07:44:08;94466.03;;;6.94;62.93
7335;BME280;3708;42.632;23.378;2022-12-01T07:46:35;94476.28;;;7.05;63.11
7335;BME280;3708;42.632;23.378;2022-12-01T07:49:06;94474.94;;;7.07;63.45
7335;BME280;3708;42.632;23.378;2022-12-01T07:51:34;94464.69;;;7.11;62.46
7335;BME280;3708;42.632;23.378;2022-12-01T07:54:03;94472.81;;;6.82;63.41
7335;BME280;3708;42.632;23.378;2022-12-01T07:56:31;94475.50;;;6.90;62.66
7335;BME280;3708;42.632;23.378;2022-12-01T07:59:16;94481.66;;;6.94;62.54
7335;BME280;3708;42.632;23.378;2022-12-01T08:01:43;94472.53;;;6.83;62.49
7335;BME280;3708;42.632;23.378;2022-12-01T08:04:12;94476.97;;;6.83;62.81
7335;BME280;3708;42.632;23.378;2022-12-01T08:06:39;94474.53;;;6.86;62.71
7335;BME280;3708;42.632;23.378;2022-12-01T08:09:06;94483.91;;;6.87;63.07
7335;BME280;3708;42.632;23.378;2022-12-01T08:11:33;94476.38;;;6.86;63.52
7335;BME280;3708;42.632;23.378;2022-12-01T08:14:00;94467.91;;;6.94;64.03
7335;BME280;3708;42.632;23.378;2022-12-01T08:16:27;94467.22;;;6.88;63.64
7335;BME280;3708;42.632;23.378;2022-12-01T08:18:55;94472.41;;;7.02;63.88
7335;BME280;3708;42.632;23.378;2022-12-01T08:21:23;94474.84;;;6.99;63.77
7335;BME280;3708;42.632;23.378;2022-12-01T08:23:52;94474.63;;;7.09;63.41
7335;BME280;3708;42.632;23.378;2022-12-01T08:26:21;94469.91;;;7.11;63.29
7335;BME280;3708;42.632;23.378;2022-12-01T08:28:48;94478.94;;;7.27;62.72
7335;BME280;3708;42.632;23.378;2022-12-01T08:31:17;94472.13;;;7.17;63.05
7335;BME280;3708;42.632;23.378;2022-12-01T08:33:45;94474.81;;;7.12;63.34
7335;BME280;3708;42.632;23.378;2022-12-01T08:36:12;94471.44;;;7.12;63.99
7335;BME280;3708;42.632;23.378;2022-12-01T08:38:43;94476.25;;;7.32;63.88
7335;BME280;3708;42.632;23.378;2022-12-01T08:41:11;94473.31;;;7.47;63.30
7335;BME280;3708;42.632;23.378;2022-12-01T08:43:38;94470.25;;;7.45;62.90
7335;BME280;3708;42.632;23.378;2022-12-01T08:46:07;94470.16;;;7.36;63.13
7335;BME280;3708;42.632;23.378;2022-12-01T08:48:35;94472.69;;;7.28;62.23
7335;BME280;3708;42.632;23.378;2022-12-01T08:51:03;94466.63;;;7.19;62.69
7335;BME280;3708;42.632;23.378;2022-12-01T08:53:31;94469.31;;;7.27;63.35
7335;BME280;3708;42.632;23.378;2022-12-01T08:56:04;94465.09;;;7.18;63.51
7335;BME280;3708;42.632;23.378;2022-12-01T08:58:31;94464.28;;;7.31;62.83
7335;BME280;3708;42.632;23.378;2022-12-01T09:01:08;94467.97;;;7.16;62.65
7335;BME280;3708;42.632;23.378;2022-12-01T09:03:36;94457.34;;;7.26;63.65
7335;BME280;3708;42.632;23.378;2022-12-01T09:06:05;94463.53;;;7.30;63.42
7335;BME280;3708;42.632;23.378;2022-12-01T09:08:34;94460.22;;;7.25;62.95
7335;BME280;3708;42.632;23.378;2022-12-01T09:11:05;94458.53;;;7.20;63.09
7335;BME280;3708;42.632;23.378;2022-12-01T09:13:33;94450.03;;;7.01;63.39
7335;BME280;3708;42.632;23.378;2022-12-01T09:16:03;94449.13;;;7.33;62.72
7335;BME280;3708;42.632;23.378;2022-12-01T09:18:32;94451.19;;;7.09;62.45
7335;BME280;3708;42.632;23.378;2022-12-01T09:20:59;94454.44;;;7.28;62.62
7335;BME280;3708;42.632;23.378;2022-12-01T09:23:26;94448.00;;;7.12;62.22
7335;BME280;3708;42.632;23.378;2022-12-01T09:25:53;94444.25;;;7.04;62.70
7335;BME280;3708;42.632;23.378;2022-12-01T09:28:22;94439.13;;;7.13;62.59
7335;BME280;3708;42.632;23.378;2022-12-01T09:30:49;94441.56;;;6.96;62.63
7335;BME280;3708;42.632;23.378;2022-12-01T09:33:16;94439.03;;;7.04;62.97
7335;BME280;3708;42.632;23.378;2022-12-01T09:35:43;94436.81;;;6.98;62.16
7335;BME280;3708;42.632;23.378;2022-12-01T09:38:10;94438.09;;;7.14;62.55
7335;BME280;3708;42.632;23.378;2022-12-01T09:40:40;94437.69;;;7.07;62.52
7335;BME280;3708;42.632;23.378;2022-12-01T09:43:15;94433.22;;;7.21;62.51
7335;BME280;3708;42.632;23.378;2022-12-01T09:45:58;94434.56;;;7.32;61.88
7335;BME280;3708;42.632;23.378;2022-12-01T09:48:32;94426.75;;;7.32;62.07
7335;BME280;3708;42.632;23.378;2022-12-01T09:51:10;94430.53;;;7.26;62.37
7335;BME280;3708;42.632;23.378;2022-12-01T09:53:38;94426.44;;;7.33;62.01
7335;BME280;3708;42.632;23.378;2022-12-01T09:56:17;94424.75;;;7.29;61.92
7335;BME280;3708;42.632;23.378;2022-12-01T09:58:48;94414.81;;;7.17;62.73
7335;BME280;3708;42.632;23.378;2022-12-01T10:01:23;94417.72;;;7.16;62.77
7335;BME280;3708;42.632;23.378;2022-12-01T10:03:55;94403.50;;;7.35;62.23
7335;BME280;3708;42.632;23.378;2022-12-01T10:06:34;94406.81;;;7.49;62.04
7335;BME280;3708;42.632;23.378;2022-12-01T10:09:14;94408.78;;;7.44;61.50
7335;BME280;3708;42.632;23.378;2022-12-01T10:11:46;94406.09;;;7.35;62.14
7335;BME280;3708;42.632;23.378;2022-12-01T10:14:16;94412.66;;;7.55;61.99
7335;BME280;3708;42.632;23.378;2022-12-01T10:16:52;94406.72;;;7.54;61.47
7335;BME280;3708;42.632;23.378;2022-12-01T10:19:27;94409.78;;;7.56;61.96
7335;BME280;3708;42.632;23.378;2022-12-01T10:22:14;94399.78;;;7.50;61.58
7335;BME280;3708;42.632;23.378;2022-12-01T10:24:52;94410.31;;;7.45;61.74
7335;BME280;3708;42.632;23.378;2022-12-01T10:27:34;94408.69;;;7.35;61.94
7335;BME280;3708;42.632;23.378;2022-12-01T10:30:07;94401.38;;;7.37;62.11
7335;BME280;3708;42.632;23.378;2022-12-01T10:32:43;94405.56;;;7.47;61.69
7335;BME280;3708;42.632;23.378;2022-12-01T10:35:20;94407.66;;;7.23;62.90
7335;BME280;3708;42.632;23.378;2022-12-01T10:37:53;94402.34;;;7.28;62.70
7335;BME280;3708;42.632;23.378;2022-12-01T10:40:23;94404.31;;;7.09;63.14
7335;BME280;3708;42.632;23.378;2022-12-01T10:42:52;94404.84;;;7.33;62.64
7335;BME280;3708;42.632;23.378;2022-12-01T10:45:22;94400.91;;;7.22;62.29
7335;BME280;3708;42.632;23.378;2022-12-01T10:48:11;94401.00;;;7.17;62.73
7335;BME280;3708;42.632;23.378;2022-12-01T10:51:13;94390.88;;;7.29;62.11
7335;BME280;3708;42.632;23.378;2022-12-01T10:53:40;94391.66;;;7.16;62.24
7335;BME280;3708;42.632;23.378;2022-12-01T10:56:11;94406.91;;;7.44;62.21
7335;BME280;3708;42.632;23.378;2022-12-01T10:58:43;94395.09;;;7.25;61.75
7335;BME280;3708;42.632;23.378;2022-12-01T11:01:18;94398.06;;;7.45;61.09
7335;BME280;3708;42.632;23.378;2022-12-01T11:03:52;94396.91;;;7.38;61.39
7335;BME280;3708;42.632;23.378;2022-12-01T11:06:31;94385.19;;;7.49;61.08
7335;BME280;3708;42.632;23.378;2022-12-01T11:09:00;94388.16;;;7.56;60.73
7335;BME280;3708;42.632;23.378;2022-12-01T11:11:30;94394.69;;;7.67;60.67
7335;BME280;3708;42.632;23.378;2022-12-01T11:14:01;94394.06;;;7.70;60.44
7335;BME280;3708;42.632;23.378;2022-12-01T11:16:35;94385.78;;;7.68;60.32
7335;BME280;3708;42.632;23.378;2022-12-01T11:19:18;94389.09;;;7.60;60.70
7335;BME280;3708;42.632;23.378;2022-12-01T11:21:57;94381.16;;;7.43;61.32
7335;BME280;3708;42.632;23.378;2022-12-01T11:24:39;94385.44;;;7.61;60.40
7335;BME280;3708;42.632;23.378;2022-12-01T11:27:15;94386.19;;;7.61;60.73
7335;BME280;3708;42.632;23.378;2022-12-01T11:29:45;94383.31;;;7.63;60.40
7335;BME280;3708;42.632;23.378;2022-12-01T11:32:20;94380.81;;;7.58;60.04
7335;BME280;3708;42.632;23.378;2022-12-01T11:34:52;94383.31;;;7.63;60.11
7335;BME280;3708;42.632;23.378;2022-12-01T11:37:22;94389.00;;;7.65;59.68
7335;BME280;3708;42.632;23.378;2022-12-01T11:39:51;94381.47;;;7.41;60.63
7335;BME280;3708;42.632;23.378;2022-12-01T11:42:25;94385.50;;;7.47;61.02
7335;BME280;3708;42.632;23.378;2022-12-01T11:44:55;94376.66;;;7.35;59.97
7335;BME280;3708;42.632;23.378;2022-12-01T11:51:05;94380.28;;;7.47;60.49
7335;BME280;3708;42.632;23.378;2022-12-01T11:53:34;94383.78;;;7.43;60.88
7335;BME280;3708;42.632;23.378;2022-12-01T11:56:17;94381.88;;;7.57;60.35
7335;BME280;3708;42.632;23.378;2022-12-01T11:59:04;94383.78;;;7.43;61.32
7335;BME280;3708;42.632;23.378;2022-12-01T12:05:45;94378.66;;;7.38;61.24
7335;BME280;3708;42.632;23.378;2022-12-01T12:08:27;94371.22;;;7.45;61.40
7335;BME280;3708;42.632;23.378;2022-12-01T12:11:07;94379.75;;;7.59;61.07
7335;BME280;3708;42.632;23.378;2022-12-01T12:13:55;94380.50;;;7.59;61.22
7335;BME280;3708;42.632;23.378;2022-12-01T12:16:32;94380.13;;;7.44;61.54
7335;BME280;3708;42.632;23.378;2022-12-01T12:19:15;94375.59;;;7.36;61.05
7335;BME280;3708;42.632;23.378;2022-12-01T12:21:51;94370.44;;;7.44;61.59
7335;BME280;3708;42.632;23.378;2022-12-01T12:24:39;94378.84;;;7.06;62.61
7335;BME280;3708;42.632;23.378;2022-12-01T12:27:18;94385.16;;;7.27;61.82
7335;BME280;3708;42.632;23.378;2022-12-01T12:30:03;94377.78;;;7.42;61.99
7335;BME280;3708;42.632;23.378;2022-12-01T12:32:46;94389.69;;;7.35;62.07
7335;BME280;3708;42.632;23.378;2022-12-01T12:35:25;94384.19;;;7.23;62.17
7335;BME280;3708;42.632;23.378;2022-12-01T12:38:03;94376.78;;;7.16;62.19
7335;BME280;3708;42.632;23.378;2022-12-01T12:40:41;94372.59;;;7.07;62.76
7335;BME280;3708;42.632;23.378;2022-12-01T12:43:22;94377.25;;;7.18;62.45
7335;BME280;3708;42.632;23.378;2022-12-01T12:46:02;94375.59;;;7.00;62.51
7335;BME280;3708;42.632;23.378;2022-12-01T12:48:45;94378.16;;;7.14;62.50
7335;BME280;3708;42.632;23.378;2022-12-01T12:51:19;94377.34;;;7.27;62.06
7335;BME280;3708;42.632;23.378;2022-12-01T12:53:55;94382.84;;;7.25;61.66
7335;BME280;3708;42.632;23.378;2022-12-01T12:56:29;94384.97;;;7.23;61.91
7335;BME280;3708;42.632;23.378;2022-12-01T12:59:02;94378.84;;;7.06;61.17
7335;BME280;3708;42.632;23.378;2022-12-01T13:01:37;94392.72;;;7.15;61.91
7335;BME280;3708;42.632;23.378;2022-12-01T13:04:08;94390.34;;;7.05;61.93
7335;BME280;3708;42.632;23.378;2022-12-01T13:06:42;94394.63;;;7.23;61.99
7335;BME280;3708;42.632;23.378;2022-12-01T13:09:13;94393.97;;;7.17;61.79
7335;BME280;3708;42.632;23.378;2022-12-01T13:11:46;94387.03;;;7.13;62.64
7335;BME280;3708;42.632;23.378;2022-12-01T13:14:19;94391.38;;;7.17;61.75
7335;BME280;3708;42.632;23.378;2022-12-01T13:16:51;94394.22;;;7.29;61.59
7335;BME280;3708;42.632;23.378;2022-12-01T13:19:25;94401.25;;;6.93;61.97
7335;BME280;3708;42.632;23.378;2022-12-01T13:21:54;94396.22;;;6.97;61.96
7335;BME280;3708;42.632;23.378;2022-12-01T13:24:23;94393.50;;;7.02;62.33
7335;BME280;3708;42.632;23.378;2022-12-01T13:26:55;94399.88;;;7.09;62.41
7335;BME280;3708;42.632;23.378;2022-12-01T13:29:50;94398.78;;;7.24;62.16
7335;BME280;3708;42.632;23.378;2022-12-01T13:32:42;94396.34;;;7.27;61.79
7335;BME280;3708;42.632;23.378;2022-12-01T13:35:24;94402.41;;;7.36;61.41
7335;BME280;3708;42.632;23.378;2022-12-01T13:38:29;94401.00;;;7.17;61.76
7335;BME280;3708;42.632;23.378;2022-12-01T13:41:12;94402.16;;;7.24;61.46
7335;BME280;3708;42.632;23.378;2022-12-01T13:44:00;94397.53;;;7.21;61.85
7335;BME280;3708;42.632;23.378;2022-12-01T13:46:49;94394.69;;;7.31;61.59
7335;BME280;3708;42.632;23.378;2022-12-01T13:49:38;94391.16;;;7.27;61.30
7335;BME280;3708;42.632;23.378;2022-12-01T13:52:30;94399.00;;;7.14;61.53
7335;BME280;3708;42.632;23.378;2022-12-01T14:00:42;94394.69;;;7.31;61.17
7335;BME280;3708;42.632;23.378;2022-12-01T14:03:33;94395.78;;;7.30;60.93